Time;durP1;ratioP1;P1;durP2;ratioP2;P2;SDS_P1;SDS_P2;PMS_P1;PMS_P2;Temp;Humidity;BMP_temperature;BMP_pressure;BME280_temperature;BME280_humidity;BME280_pressure;Samples;Min_cycle;Max_cycle;Signal;HPM_P1;HPM_P2
2023/06/14 00:00:11;;;;;;;7.40;5.50;;;;;;;15.69;100.00;100823.10;110107;1237;63262;-72
2023/06/14 00:03:03;;;;;;;11.60;6.40;;;;;;;15.54;100.00;100828.19;110223;1235;62401;-73
2023/06/14 00:05:38;;;;;;;10.80;6.50;;;;;;;15.45;100.00;100830.43;110160;1235;73150;-72
2023/06/14 00:08:07;;;;;;;12.20;6.30;;;;;;;15.35;100.00;100822.86;110247;1235;71603;-72
2023/06/14 00:10:38;;;;;;;14.30;7.20;;;;;;;15.30;100.00;100823.64;110377;1235;69424;-72
2023/06/14 00:13:09;;;;;;;9.50;6.70;;;;;;;15.36;100.00;100821.04;110317;1235;63706;-72
2023/06/14 00:15:38;;;;;;;10.30;6.90;;;;;;;15.41;100.00;100819.57;110282;1235;63237;-73
2023/06/14 00:18:07;;;;;;;8.80;5.70;;;;;;;15.46;100.00;100814.72;110133;1235;60218;-72
2023/06/14 00:20:35;;;;;;;7.70;5.80;;;;;;;15.46;100.00;100819.31;110374;1235;73139;-72
2023/06/14 00:23:04;;;;;;;8.50;6.10;;;;;;;15.41;100.00;100820.29;110231;1235;72551;-73
2023/06/14 00:25:33;;;;;;;9.50;6.30;;;;;;;15.27;100.00;100817.83;110091;1235;60680;-74
2023/06/14 00:28:02;;;;;;;10.40;6.80;;;;;;;15.22;100.00;100817.60;110144;1235;63243;-74
2023/06/14 00:30:31;;;;;;;8.00;6.30;;;;;;;15.24;100.00;100817.77;110187;1238;58034;-74
2023/06/14 00:33:00;;;;;;;9.70;7.00;;;;;;;15.29;100.00;100820.81;110257;1234;57221;-75
2023/06/14 00:35:29;;;;;;;9.10;6.20;;;;;;;15.25;100.00;100815.16;110166;1238;71249;-75
2023/06/14 00:37:59;;;;;;;9.40;6.60;;;;;;;15.27;100.00;100811.67;110229;1235;71216;-75
2023/06/14 00:40:28;;;;;;;9.00;6.50;;;;;;;15.30;100.00;100807.38;109988;1234;61129;-76
2023/06/14 00:42:57;;;;;;;9.00;6.50;;;;;;;15.34;100.00;100807.38;110202;1237;73662;-74
2023/06/14 00:45:26;;;;;;;9.60;6.80;;;;;;;15.34;100.00;100804.55;110090;1238;63333;-74
2023/06/14 00:47:55;;;;;;;9.90;7.00;;;;;;;15.36;100.00;100801.34;110138;1235;60818;-74
2023/06/14 00:50:24;;;;;;;9.00;7.10;;;;;;;15.37;100.00;100802.89;109896;1235;63609;-74
2023/06/14 00:52:53;;;;;;;9.50;7.30;;;;;;;15.41;100.00;100800.45;110125;1235;60952;-74
2023/06/14 00:55:22;;;;;;;8.10;6.60;;;;;;;15.40;100.00;100802.11;109937;1235;68766;-74
2023/06/14 00:57:51;;;;;;;8.60;6.10;;;;;;;15.47;100.00;100795.70;109994;1235;74324;-73
2023/06/14 01:00:20;;;;;;;11.70;6.70;;;;;;;15.47;100.00;100794.42;110106;1238;62295;-74
2023/06/14 01:02:51;;;;;;;9.20;7.10;;;;;;;15.38;100.00;100797.34;110039;1238;61415;-74
2023/06/14 01:05:21;;;;;;;9.10;7.00;;;;;;;15.24;100.00;100797.73;110021;1235;74275;-74
2023/06/14 01:08:24;;;;;;;10.50;6.80;;;;;;;15.25;100.00;100795.05;110092;1238;72788;-72
2023/06/14 01:11:22;;;;;;;10.80;7.60;;;;;;;15.20;100.00;100793.58;110097;1235;60218;-74
2023/06/14 01:13:53;;;;;;;10.10;6.80;;;;;;;15.21;100.00;100791.76;110105;1235;63105;-73
2023/06/14 01:16:23;;;;;;;10.70;7.30;;;;;;;15.26;100.00;100794.95;109885;1238;57724;-74
2023/06/14 01:18:56;;;;;;;10.10;7.10;;;;;;;15.35;100.00;100796.38;110067;1239;57664;-73
2023/06/14 01:21:26;;;;;;;11.10;7.30;;;;;;;15.32;100.00;100796.67;110160;1235;74158;-74
2023/06/14 01:23:55;;;;;;;10.10;6.60;;;;;;;15.22;100.00;100793.23;110041;1235;70794;-71
2023/06/14 01:26:28;;;;;;;12.20;7.70;;;;;;;15.23;100.00;100789.40;110146;1237;70935;-72
2023/06/14 01:29:01;;;;;;;11.20;7.10;;;;;;;15.19;100.00;100790.12;110063;1235;73440;-72
2023/06/14 01:31:40;;;;;;;12.50;7.60;;;;;;;15.21;100.00;100792.29;110059;1238;58231;-72
2023/06/14 01:34:10;;;;;;;11.20;7.50;;;;;;;15.16;100.00;100792.58;110082;1236;61319;-72
2023/06/14 01:36:43;;;;;;;11.20;7.40;;;;;;;15.16;100.00;100796.75;110092;1235;74126;-73
2023/06/14 01:39:15;;;;;;;9.30;7.30;;;;;;;15.17;100.00;100794.06;109995;1238;71114;-73
2023/06/14 01:41:45;;;;;;;9.70;7.50;;;;;;;15.18;100.00;100790.79;109918;1238;70982;-74
2023/06/14 01:44:15;;;;;;;13.40;7.70;;;;;;;15.18;100.00;100794.77;109908;1241;75213;-73
2023/06/14 01:46:45;;;;;;;11.70;7.60;;;;;;;15.18;100.00;100795.86;110077;1235;57744;-73
2023/06/14 01:49:14;;;;;;;9.30;7.40;;;;;;;15.18;100.00;100795.27;110301;1235;57673;-73
2023/06/14 01:51:43;;;;;;;10.10;7.50;;;;;;;15.19;100.00;100792.61;110114;1235;73901;-72
2023/06/14 01:54:11;;;;;;;11.70;8.00;;;;;;;15.19;100.00;100792.08;110163;1235;72593;-71
2023/06/14 01:56:40;;;;;;;12.00;8.20;;;;;;;15.17;100.00;100792.95;110218;1235;71068;-74
2023/06/14 01:59:09;;;;;;;11.60;7.70;;;;;;;15.18;100.00;100790.45;110187;1236;63686;-73
2023/06/14 02:01:38;;;;;;;13.40;7.90;;;;;;;15.22;100.00;100790.04;110265;1237;57883;-71
2023/06/14 02:04:07;;;;;;;11.40;8.20;;;;;;;15.18;100.00;100785.14;110222;1235;57570;-72
2023/06/14 02:06:36;;;;;;;10.20;7.70;;;;;;;15.19;100.00;100786.60;110374;1235;73497;-73
2023/06/14 02:09:04;;;;;;;11.10;7.90;;;;;;;15.23;100.00;100785.05;110246;1235;71770;-73
2023/06/14 02:11:33;;;;;;;11.00;8.10;;;;;;;15.24;100.00;100788.67;110481;1235;59543;-73
2023/06/14 02:14:02;;;;;;;12.20;8.10;;;;;;;15.24;100.00;100791.28;110361;1238;63265;-74
2023/06/14 02:16:35;;;;;;;15.10;7.90;;;;;;;15.23;100.00;100784.13;110345;1238;61447;-74
2023/06/14 02:19:05;;;;;;;13.90;8.60;;;;;;;15.23;100.00;100786.24;110153;1235;60971;-74
2023/06/14 02:21:34;;;;;;;9.60;7.80;;;;;;;15.23;100.00;100787.36;110045;1239;63552;-75
2023/06/14 02:24:03;;;;;;;16.20;8.80;;;;;;;15.20;100.00;100788.47;110180;1238;61684;-73
2023/06/14 02:26:32;;;;;;;11.30;8.40;;;;;;;15.19;100.00;100785.55;110247;1235;68292;-73
2023/06/14 02:29:01;;;;;;;11.10;8.60;;;;;;;15.19;100.00;100786.85;110141;1235;63384;-74
2023/06/14 02:31:30;;;;;;;12.50;8.30;;;;;;;15.15;100.00;100786.63;110089;1239;57191;-74
2023/06/14 02:33:59;;;;;;;14.10;8.40;;;;;;;15.18;100.00;100788.32;110176;1235;60290;-73
2023/06/14 02:36:30;;;;;;;12.70;8.60;;;;;;;15.17;100.00;100793.17;109807;1239;73923;-74
2023/06/14 02:39:01;;;;;;;12.00;8.10;;;;;;;15.20;100.00;100794.23;110055;1238;61274;-74
2023/06/14 02:41:30;;;;;;;10.60;8.30;;;;;;;15.31;100.00;100793.58;109899;1241;71110;-74
2023/06/14 02:43:59;;;;;;;12.10;9.10;;;;;;;15.32;100.00;100796.81;110153;1238;74218;-74
2023/06/14 02:46:29;;;;;;;12.80;8.10;;;;;;;15.21;100.00;100790.67;110184;1235;62757;-75
2023/06/14 02:48:59;;;;;;;13.80;9.40;;;;;;;15.20;100.00;100801.42;110238;1238;57499;-75
2023/06/14 02:51:28;;;;;;;14.20;9.20;;;;;;;15.14;100.00;100803.74;110296;1235;72890;-75
2023/06/14 02:53:58;;;;;;;15.20;8.70;;;;;;;15.14;100.00;100804.48;110135;1237;72327;-73
2023/06/14 02:56:27;;;;;;;12.80;8.50;;;;;;;15.10;100.00;100812.34;110326;1235;70921;-74
2023/06/14 02:58:58;;;;;;;13.20;9.00;;;;;;;15.14;100.00;100811.53;110157;1239;63609;-73
2023/06/14 03:01:34;;;;;;;12.10;8.90;;;;;;;15.16;100.00;100811.98;110260;1239;62968;-73
2023/06/14 03:04:09;;;;;;;12.70;8.40;;;;;;;15.21;100.00;100811.54;110173;1235;60933;-72
2023/06/14 03:06:40;;;;;;;14.60;9.50;;;;;;;15.22;100.00;100811.30;110252;1235;63449;-73
2023/06/14 03:09:09;;;;;;;12.30;9.10;;;;;;;15.23;100.00;100812.09;110330;1238;61749;-73
2023/06/14 03:11:39;;;;;;;15.00;9.90;;;;;;;15.28;100.00;100810.14;110337;1234;60294;-72
2023/06/14 03:14:08;;;;;;;14.20;9.00;;;;;;;15.35;100.00;100807.79;110441;1235;72970;-73
2023/06/14 03:16:38;;;;;;;14.10;9.20;;;;;;;15.43;100.00;100809.21;109991;1238;416903;-73
2023/06/14 03:19:07;;;;;;;14.20;9.10;;;;;;;15.47;100.00;100808.67;110437;1238;57957;-73
2023/06/14 03:21:36;;;;;;;12.50;9.30;;;;;;;15.50;100.00;100805.60;110147;1239;62131;-73
2023/06/14 03:24:05;;;;;;;14.60;8.70;;;;;;;15.51;100.00;100808.75;110387;1238;60950;-74
2023/06/14 03:26:36;;;;;;;14.40;9.50;;;;;;;15.54;100.00;100812.59;110329;1237;59936;-74
2023/06/14 03:29:05;;;;;;;16.30;9.50;;;;;;;15.57;100.00;100808.96;110296;1235;73932;-73
2023/06/14 03:31:36;;;;;;;12.90;8.80;;;;;;;15.59;100.00;100812.77;110047;1241;62943;-74
2023/06/14 03:34:05;;;;;;;12.40;8.70;;;;;;;15.66;100.00;100809.23;110240;1239;57292;-73
2023/06/14 03:36:34;;;;;;;13.20;9.70;;;;;;;15.71;100.00;100808.38;110095;1238;63993;-73
2023/06/14 03:39:06;;;;;;;13.70;8.90;;;;;;;15.77;100.00;100808.71;110204;1239;60871;-76
2023/06/14 03:41:35;;;;;;;14.80;9.40;;;;;;;15.83;100.00;100808.98;110222;1239;59962;-76
2023/06/14 03:44:04;;;;;;;12.90;9.80;;;;;;;15.83;100.00;100809.54;110240;1239;62494;-73
2023/06/14 03:46:33;;;;;;;15.00;9.90;;;;;;;15.93;100.00;100811.12;110347;1238;57669;-74
2023/06/14 03:49:02;;;;;;;19.00;9.60;;;;;;;16.05;100.00;100814.01;110260;1239;57281;-76
2023/06/14 03:51:31;;;;;;;15.00;10.20;;;;;;;16.13;100.00;100812.48;110196;1239;62940;-71
2023/06/14 03:54:00;;;;;;;12.30;8.90;;;;;;;16.24;100.00;100814.34;110196;1239;61648;-73
2023/06/14 03:56:50;;;;;;;15.80;9.30;;;;;;;16.30;100.00;100813.92;110202;1239;60014;-72
2023/06/14 03:59:19;;;;;;;13.80;10.20;;;;;;;16.38;100.00;100813.37;110250;1235;73870;-71
2023/06/14 04:01:49;;;;;;;11.50;8.60;;;;;;;16.47;100.00;100816.71;110252;1237;63793;-72
2023/06/14 04:04:21;;;;;;;13.20;9.30;;;;;;;16.67;100.00;100819.19;110050;1235;60906;-75
2023/06/14 04:06:50;;;;;;;13.10;9.00;;;;;;;16.78;100.00;100816.92;110161;1238;73681;-73
2023/06/14 04:09:19;;;;;;;13.20;9.70;;;;;;;16.79;100.00;100815.08;110069;1239;61303;-74
2023/06/14 04:11:48;;;;;;;14.30;9.00;;;;;;;16.85;100.00;100814.45;110312;1239;59761;-73
2023/06/14 04:14:21;;;;;;;15.10;9.80;;;;;;;16.91;100.00;100814.05;110210;1235;65044;-77
2023/06/14 04:16:51;;;;;;;17.50;10.30;;;;;;;16.92;100.00;100812.39;110303;1235;63776;-74
2023/06/14 04:19:21;;;;;;;16.00;9.90;;;;;;;17.01;100.00;100816.64;110173;1235;57591;-74
2023/06/14 04:21:50;;;;;;;13.50;9.40;;;;;;;17.03;100.00;100822.95;110343;1235;62337;-75
2023/06/14 04:24:19;;;;;;;16.30;10.00;;;;;;;17.09;100.00;100820.73;110319;1239;60827;-75
2023/06/14 04:26:51;;;;;;;14.90;10.00;;;;;;;17.08;100.00;100822.58;110401;1235;70015;-72
2023/06/14 04:29:23;;;;;;;14.70;10.20;;;;;;;17.26;100.00;100821.20;110314;1238;64050;-74
2023/06/14 04:31:59;;;;;;;13.80;9.80;;;;;;;17.38;100.00;100820.91;110280;1238;63590;-81
2023/06/14 04:34:33;;;;;;;12.60;9.90;;;;;;;17.38;100.00;100824.58;110204;1239;57662;-75
2023/06/14 04:37:05;;;;;;;14.10;9.70;;;;;;;17.37;100.00;100827.98;110311;1235;73416;-74
2023/06/14 04:39:37;;;;;;;14.60;9.60;;;;;;;17.47;100.00;100828.43;110153;1235;62870;-74
2023/06/14 04:42:07;;;;;;;16.00;10.40;;;;;;;17.59;100.00;100831.11;110201;1239;59200;-75
2023/06/14 04:44:39;;;;;;;13.50;10.40;;;;;;;17.57;100.00;100833.08;110390;1235;73769;-75
2023/06/14 04:47:12;;;;;;;14.00;10.10;;;;;;;17.52;100.00;100833.56;110183;1239;57660;-75
2023/06/14 04:49:43;;;;;;;15.10;10.50;;;;;;;17.61;100.00;100837.37;109985;1234;57654;-74
2023/06/14 04:52:13;;;;;;;12.30;9.80;;;;;;;17.55;100.00;100837.35;110303;1235;62194;-76
2023/06/14 04:54:44;;;;;;;18.00;11.10;;;;;;;17.50;100.00;100836.95;110042;1241;61705;-75
2023/06/14 04:57:22;;;;;;;13.00;9.80;;;;;;;17.46;100.00;100842.10;110104;1239;59962;-67
2023/06/14 05:00:00;;;;;;;17.30;11.80;;;;;;;17.62;100.00;100845.80;110153;1238;62783;-66
2023/06/14 05:02:30;;;;;;;13.60;10.20;;;;;;;17.69;100.00;100845.93;110081;1235;62871;-64
2023/06/14 05:05:01;;;;;;;19.70;10.20;;;;;;;17.76;100.00;100844.02;110234;1238;57396;-64
2023/06/14 05:07:30;;;;;;;17.20;10.70;;;;;;;17.87;100.00;100846.59;110348;1239;72898;-65
2023/06/14 05:09:59;;;;;;;14.90;10.30;;;;;;;17.93;100.00;100849.02;110296;1239;61768;-64
2023/06/14 05:12:29;;;;;;;15.00;9.90;;;;;;;17.97;100.00;100847.17;110267;1236;68609;-67
2023/06/14 05:14:58;;;;;;;13.80;10.30;;;;;;;18.05;100.00;100846.09;110386;1235;63977;-64
2023/06/14 05:17:28;;;;;;;16.30;10.20;;;;;;;18.10;100.00;100845.86;110272;1235;57091;-65
2023/06/14 05:19:57;;;;;;;17.30;10.80;;;;;;;18.20;100.00;100847.46;110407;1235;57762;-63
2023/06/14 05:22:26;;;;;;;15.00;10.10;;;;;;;18.25;100.00;100846.61;110337;1235;72746;-64
2023/06/14 05:24:55;;;;;;;17.50;10.80;;;;;;;18.22;100.00;100847.05;110357;1235;72639;-64
2023/06/14 05:27:25;;;;;;;15.10;9.80;;;;;;;18.36;100.00;100845.27;110386;1235;60682;-67
2023/06/14 05:29:55;;;;;;;16.20;10.50;;;;;;;18.45;100.00;100840.48;110341;1235;73031;-68
2023/06/14 05:32:24;;;;;;;14.90;10.00;;;;;;;18.57;100.00;100845.64;110263;1238;57957;-68
2023/06/14 05:34:53;;;;;;;16.20;10.80;;;;;;;18.66;100.00;100848.75;110364;1235;57661;-68
2023/06/14 05:37:22;;;;;;;17.30;9.70;;;;;;;18.85;100.00;100852.11;110311;1235;73497;-68
2023/06/14 05:39:50;;;;;;;16.80;10.20;;;;;;;18.99;100.00;100853.73;110316;1235;73551;-68
2023/06/14 05:42:19;;;;;;;16.70;10.50;;;;;;;19.14;100.00;100857.92;110211;1235;71493;-69
2023/06/14 05:44:48;;;;;;;17.00;11.00;;;;;;;19.26;100.00;100855.60;110211;1235;63732;-67
2023/06/14 05:47:17;;;;;;;12.60;9.60;;;;;;;19.33;100.00;100855.41;110147;1238;57644;-67
2023/06/14 05:49:46;;;;;;;14.80;10.50;;;;;;;19.44;100.00;100856.17;110201;1235;57280;-67
2023/06/14 05:52:16;;;;;;;13.40;9.70;;;;;;;19.46;100.00;100853.66;110102;1235;73577;-68
2023/06/14 05:54:45;;;;;;;16.10;10.20;;;;;;;19.54;100.00;100857.18;110065;1238;72492;-68
2023/06/14 05:57:13;;;;;;;14.90;8.90;;;;;;;19.58;100.00;100855.27;110052;1235;70010;-68
2023/06/14 05:59:43;;;;;;;13.30;9.30;;;;;;;19.43;100.00;100855.25;110035;1238;73855;-67
2023/06/14 06:02:11;;;;;;;13.30;9.00;;;;;;;19.46;99.92;100858.66;110082;1235;62709;-68
2023/06/14 06:04:40;;;;;;;14.00;9.60;;;;;;;19.22;100.00;100863.30;110106;1235;60276;-68
2023/06/14 06:07:09;;;;;;;14.70;9.60;;;;;;;19.35;99.87;100859.95;110137;1235;63555;-67
2023/06/14 06:09:38;;;;;;;12.40;9.20;;;;;;;19.51;99.67;100859.16;110226;1235;62382;-68
2023/06/14 06:12:07;;;;;;;13.40;9.60;;;;;;;19.59;99.67;100858.98;110305;1235;59960;-68
2023/06/14 06:14:36;;;;;;;12.50;9.10;;;;;;;19.69;99.68;100858.84;110250;1235;62516;-68
2023/06/14 06:17:05;;;;;;;14.50;8.90;;;;;;;19.81;98.41;100861.40;110276;1238;61310;-68
2023/06/14 06:19:34;;;;;;;15.60;9.70;;;;;;;19.78;98.48;100859.95;110310;1235;57169;-68
2023/06/14 06:22:06;;;;;;;14.00;8.90;;;;;;;19.78;98.15;100861.50;110029;1235;73531;-67
2023/06/14 06:24:35;;;;;;;13.20;9.10;;;;;;;19.89;98.31;100860.70;110084;1235;72859;-68
2023/06/14 06:27:04;;;;;;;15.80;8.90;;;;;;;19.95;98.14;100856.87;110317;1235;69682;-68
2023/06/14 06:29:33;;;;;;;11.70;8.50;;;;;;;20.13;97.21;100854.83;110278;1236;63709;-68
2023/06/14 06:32:02;;;;;;;12.70;8.60;;;;;;;20.15;95.73;100850.70;110184;1239;57083;-68
2023/06/14 06:34:31;;;;;;;13.10;8.50;;;;;;;20.32;95.32;100848.30;110153;1239;57673;-69
2023/06/14 06:37:00;;;;;;;10.60;8.40;;;;;;;20.38;94.39;100847.33;110276;1235;73430;-68
2023/06/14 06:39:29;;;;;;;12.90;8.40;;;;;;;20.31;92.43;100846.48;110218;1235;70071;-68
2023/06/14 06:41:58;;;;;;;12.00;7.90;;;;;;;20.35;93.16;100845.90;110303;1235;70200;-68
2023/06/14 06:44:33;;;;;;;12.40;8.10;;;;;;;20.32;93.87;100840.38;110321;1235;73383;-69
2023/06/14 06:47:02;;;;;;;11.60;6.50;;;;;;;20.43;91.47;100844.70;110055;1240;57162;-68
2023/06/14 06:49:31;;;;;;;9.70;7.00;;;;;;;20.44;90.06;100844.73;110326;1238;60993;-68
2023/06/14 06:52:05;;;;;;;9.70;7.00;;;;;;;20.45;88.84;100838.83;110300;1235;73372;-68
2023/06/14 06:54:34;;;;;;;10.30;7.50;;;;;;;20.28;89.33;100850.20;110227;1235;72536;-68
2023/06/14 06:57:03;;;;;;;11.40;8.40;;;;;;;20.29;89.90;100849.93;110321;1235;59769;-68
2023/06/14 06:59:32;;;;;;;13.20;8.10;;;;;;;20.31;90.18;100850.89;110297;1235;63391;-68
2023/06/14 07:02:01;;;;;;;12.40;7.90;;;;;;;20.42;89.56;100843.73;110307;1235;57264;-68
2023/06/14 07:04:31;;;;;;;11.10;7.70;;;;;;;20.42;89.42;100845.29;110208;1235;57451;-68
2023/06/14 07:07:00;;;;;;;12.70;8.30;;;;;;;20.65;89.66;100847.17;110084;1235;72913;-67
2023/06/14 07:09:29;;;;;;;13.90;8.00;;;;;;;20.74;90.07;100845.00;110330;1238;61996;-67
2023/06/14 07:11:58;;;;;;;13.80;8.50;;;;;;;21.13;88.57;100845.35;110293;1235;59746;-67
2023/06/14 07:14:27;;;;;;;12.20;7.70;;;;;;;21.41;86.52;100850.98;110259;1235;63290;-67
2023/06/14 07:16:56;;;;;;;10.10;7.30;;;;;;;21.50;84.80;100849.05;110174;1235;61198;-68
2023/06/14 07:19:24;;;;;;;10.80;7.00;;;;;;;21.51;84.69;100853.20;110329;1235;60660;-68
2023/06/14 07:21:53;;;;;;;10.10;7.40;;;;;;;21.58;83.90;100854.29;110300;1235;63503;-68
2023/06/14 07:24:22;;;;;;;9.80;7.00;;;;;;;21.72;83.67;100858.02;110303;1235;60855;-67
2023/06/14 07:26:51;;;;;;;9.90;7.10;;;;;;;21.78;83.10;100857.17;110211;1235;59974;-68
2023/06/14 07:29:21;;;;;;;11.50;7.10;;;;;;;21.96;82.32;100855.39;110327;1235;63362;-68
2023/06/14 07:31:50;;;;;;;11.70;7.50;;;;;;;22.14;80.76;100856.22;110179;1238;61232;-68
2023/06/14 07:34:18;;;;;;;11.40;7.30;;;;;;;21.86;80.58;100851.91;110098;1235;60825;-70
2023/06/14 07:36:47;;;;;;;10.60;7.40;;;;;;;21.62;79.58;100853.20;110308;1235;62746;-68
2023/06/14 07:39:16;;;;;;;10.50;7.20;;;;;;;21.59;80.17;100853.03;110325;1235;61638;-67
2023/06/14 07:41:45;;;;;;;10.50;7.80;;;;;;;21.75;80.19;100853.91;110313;1235;69469;-67
2023/06/14 07:44:15;;;;;;;11.40;7.50;;;;;;;22.05;79.20;100850.93;110051;1235;63833;-68
2023/06/14 07:46:45;;;;;;;11.20;7.90;;;;;;;21.99;79.38;100848.02;110185;1238;57464;-68
2023/06/14 07:49:15;;;;;;;12.60;7.80;;;;;;;21.96;79.19;100853.91;110300;1235;57654;-68
2023/06/14 07:51:44;;;;;;;11.40;7.80;;;;;;;22.01;79.28;100848.78;110047;1235;73551;-68
2023/06/14 07:54:13;;;;;;;11.40;8.10;;;;;;;21.94;79.49;100849.78;110339;1235;72560;-67
2023/06/14 07:56:43;;;;;;;14.00;8.20;;;;;;;21.68;79.61;100852.58;110374;1235;71915;-67
2023/06/14 07:59:12;;;;;;;9.60;7.60;;;;;;;21.68;80.26;100858.13;110354;1235;63732;-67
2023/06/14 08:01:47;;;;;;;13.70;8.20;;;;;;;21.62;80.15;100860.57;110340;1238;57640;-68
2023/06/14 08:04:16;;;;;;;10.40;7.80;;;;;;;21.69;79.76;100860.11;110381;1235;57180;-68
2023/06/14 08:06:45;;;;;;;10.80;7.70;;;;;;;21.79;80.50;100859.13;110196;1235;62951;-68
2023/06/14 08:09:15;;;;;;;13.90;7.90;;;;;;;21.64;80.35;100860.55;110286;1235;72214;-68
2023/06/14 08:11:44;;;;;;;13.50;8.00;;;;;;;21.88;80.52;100862.66;110236;1238;68163;-67
2023/06/14 08:14:13;;;;;;;10.40;8.20;;;;;;;21.90;78.89;100862.29;110290;1235;74358;-67
2023/06/14 08:16:41;;;;;;;10.80;7.30;;;;;;;21.88;79.16;100861.57;110310;1235;61641;-69
2023/06/14 08:19:10;;;;;;;9.40;6.60;;;;;;;22.01;78.95;100860.48;110319;1235;61775;-69
2023/06/14 08:21:39;;;;;;;12.70;7.50;;;;;;;22.15;77.61;100858.83;110287;1235;64747;-69
2023/06/14 08:24:09;;;;;;;10.60;8.60;;;;;;;22.09;78.26;100858.25;110317;1235;71403;-68
2023/06/14 08:26:39;;;;;;;12.50;7.90;;;;;;;22.08;77.95;100858.86;110315;1235;71823;-69
2023/06/14 08:29:07;;;;;;;10.50;8.10;;;;;;;22.10;78.13;100858.31;110215;1238;74335;-68
2023/06/14 08:31:36;;;;;;;11.20;8.00;;;;;;;22.12;78.24;100861.16;110249;1238;57385;-68
2023/06/14 08:34:05;;;;;;;11.80;8.20;;;;;;;22.04;78.31;100857.06;110179;1238;57719;-69
2023/06/14 08:36:38;;;;;;;15.90;8.10;;;;;;;22.32;76.96;100861.58;110006;1235;74176;-70
2023/06/14 08:39:08;;;;;;;9.40;6.50;;;;;;;22.28;76.83;100863.61;110110;1235;73496;-68
2023/06/14 08:41:37;;;;;;;11.80;6.90;;;;;;;22.30;76.17;100865.12;110160;1235;61216;-68
2023/06/14 08:44:07;;;;;;;12.50;7.70;;;;;;;22.28;76.69;100861.98;110166;1235;64495;-68
2023/06/14 08:46:37;;;;;;;12.80;8.60;;;;;;;22.05;78.01;100866.00;110134;1235;61245;-69
2023/06/14 08:49:07;;;;;;;8.70;6.30;;;;;;;22.09;77.35;100865.14;109867;1240;57776;-67
2023/06/14 08:51:36;;;;;;;9.00;6.30;;;;;;;22.10;76.24;100867.15;110057;1235;73478;-68
2023/06/14 08:54:05;;;;;;;13.90;11.60;;;;;;;22.05;68.97;100863.57;110029;1238;62021;-68
2023/06/14 08:56:38;;;;;;;11.40;7.40;;;;;;;21.97;65.92;100864.15;109893;1236;59229;-68
2023/06/14 08:59:08;;;;;;;9.80;6.90;;;;;;;22.00;65.40;100863.05;109996;1235;73196;-68
2023/06/14 09:01:38;;;;;;;10.70;6.20;;;;;;;22.10;64.85;100860.52;110156;1238;57916;-68
2023/06/14 09:04:07;;;;;;;10.10;6.00;;;;;;;22.18;64.42;100861.62;110073;1235;60429;-68
2023/06/14 09:06:36;;;;;;;11.40;7.50;;;;;;;22.48;63.80;100861.02;110284;1235;74788;-69
2023/06/14 09:09:07;;;;;;;9.40;6.00;;;;;;;22.65;63.79;100859.21;110251;1235;62454;-68
2023/06/14 09:11:36;;;;;;;8.80;6.30;;;;;;;22.60;62.85;100858.17;110283;1235;70530;-69
2023/06/14 09:14:04;;;;;;;10.00;6.60;;;;;;;22.45;62.83;100857.66;110273;1235;74222;-69
2023/06/14 09:16:34;;;;;;;8.00;6.40;;;;;;;22.46;62.70;100859.02;110297;1238;57779;-70
2023/06/14 09:19:03;;;;;;;8.50;6.10;;;;;;;22.57;62.03;100858.52;110328;1235;61222;-68
2023/06/14 09:21:35;;;;;;;10.10;6.50;;;;;;;22.66;61.78;100855.14;110293;1235;74273;-69
2023/06/14 09:24:05;;;;;;;7.40;6.00;;;;;;;22.58;61.35;100854.55;110293;1235;72849;-68
2023/06/14 09:26:38;;;;;;;11.00;6.30;;;;;;;22.89;60.88;100855.02;110048;1238;59914;-69
2023/06/14 09:29:09;;;;;;;8.70;5.80;;;;;;;23.15;59.78;100853.41;110097;1235;73158;-68
2023/06/14 09:31:38;;;;;;;7.80;6.20;;;;;;;23.07;59.68;100849.81;110135;1238;58545;-68
2023/06/14 09:34:09;;;;;;;9.70;6.20;;;;;;;23.24;60.16;100852.11;110246;1235;57820;-68
2023/06/14 09:36:40;;;;;;;10.70;6.60;;;;;;;23.62;59.83;100848.01;110008;1235;73576;-69
2023/06/14 09:39:09;;;;;;;8.30;6.30;;;;;;;23.29;60.05;100848.60;110068;1238;61980;-69
2023/06/14 09:41:43;;;;;;;9.40;6.70;;;;;;;23.22;60.23;100850.02;110186;1238;60009;-69
2023/06/14 09:44:12;;;;;;;8.10;6.30;;;;;;;23.70;59.68;100844.19;110261;1235;73244;-68
2023/06/14 09:46:48;;;;;;;10.70;6.40;;;;;;;23.60;59.87;100847.29;110058;1240;57812;-68
2023/06/14 09:49:17;;;;;;;11.40;6.30;;;;;;;23.78;59.02;100844.13;110284;1235;58197;-69
2023/06/14 09:51:50;;;;;;;11.00;6.10;;;;;;;23.86;58.84;100845.44;110287;1235;63806;-68
2023/06/14 09:54:24;;;;;;;9.70;6.40;;;;;;;23.71;58.97;100841.25;110173;1235;72878;-68
2023/06/14 09:56:54;;;;;;;9.40;6.20;;;;;;;23.66;58.72;100842.23;110051;1238;69293;-68
2023/06/14 09:59:31;;;;;;;8.70;5.90;;;;;;;24.13;58.23;100840.41;110112;1235;73792;-69
2023/06/14 10:02:09;;;;;;;9.90;6.20;;;;;;;24.20;56.67;100837.00;110373;1238;58371;-71
2023/06/14 10:04:46;;;;;;;8.30;5.90;;;;;;;24.59;56.50;100835.19;110335;1235;57726;-69
2023/06/14 10:07:19;;;;;;;9.60;5.60;;;;;;;24.87;56.51;100833.28;110180;1235;63679;-68
2023/06/14 10:09:49;;;;;;;7.50;5.60;;;;;;;24.95;55.66;100833.27;110158;1235;71051;-68
2023/06/14 10:12:21;;;;;;;8.20;6.10;;;;;;;24.99;55.25;100831.45;110320;1238;60389;-69
2023/06/14 10:14:53;;;;;;;10.70;6.00;;;;;;;25.12;55.33;100834.64;110190;1236;63355;-69
2023/06/14 10:18:01;;;;;;;9.50;6.00;;;;;;;25.06;54.77;100833.45;110219;1238;58324;-68
2023/06/14 10:20:50;;;;;;;9.00;5.50;;;;;;;24.91;54.91;100830.38;110253;1238;58333;-68
2023/06/14 10:23:25;;;;;;;8.70;5.80;;;;;;;25.01;54.71;100830.98;110080;1235;72814;-68
2023/06/14 10:25:57;;;;;;;8.20;5.90;;;;;;;25.09;54.77;100829.49;110253;1236;62244;-68
2023/06/14 10:28:26;;;;;;;8.20;5.80;;;;;;;25.11;54.52;100834.92;110292;1235;69545;-67
2023/06/14 10:31:09;;;;;;;7.10;5.60;;;;;;;25.09;54.51;100837.75;110252;1236;63811;-68
2023/06/14 10:33:50;;;;;;;7.40;5.60;;;;;;;25.19;54.37;100833.67;110308;1235;57876;-70
2023/06/14 10:36:21;;;;;;;11.00;6.00;;;;;;;25.30;53.73;100832.25;110346;1235;57801;-69
2023/06/14 10:39:07;;;;;;;10.70;5.40;;;;;;;25.31;54.23;100829.29;110343;1238;64143;-69
2023/06/14 10:41:40;;;;;;;8.00;5.50;;;;;;;24.88;54.09;100831.11;110318;1238;61634;-67
2023/06/14 10:44:21;;;;;;;6.70;5.00;;;;;;;25.32;53.04;100833.05;110092;1241;60033;-68
2023/06/14 10:46:52;;;;;;;7.70;5.70;;;;;;;25.48;51.94;100828.42;110351;1235;73763;-68
2023/06/14 10:49:41;;;;;;;;;;;;;;;25.48;52.00;100828.52;110031;1239;58280;-69
2023/06/14 10:52:18;;;;;;;7.10;5.30;;;;;;;25.33;52.11;100829.36;110232;1237;57750;-68
2023/06/14 10:55:12;;;;;;;7.60;5.30;;;;;;;24.79;53.80;100825.82;110172;1238;73351;-69
2023/06/14 10:57:51;;;;;;;9.70;5.20;;;;;;;24.98;53.36;100827.52;110191;1238;61202;-68
2023/06/14 11:00:45;;;;;;;10.70;5.70;;;;;;;24.45;55.34;100827.57;110136;1235;60139;-68
2023/06/14 11:03:51;;;;;;;9.30;6.10;;;;;;;24.91;54.46;100831.98;110088;1239;73915;-68
2023/06/14 11:06:28;;;;;;;10.00;6.00;;;;;;;24.50;55.37;100828.13;110287;1237;58199;-69
2023/06/14 11:09:19;;;;;;;8.70;5.80;;;;;;;24.48;55.48;100828.70;109997;1241;58407;-68
2023/06/14 11:11:51;;;;;;;11.20;6.60;;;;;;;24.56;55.53;100828.62;110142;1235;63857;-69
2023/06/14 11:14:21;;;;;;;7.60;5.10;;;;;;;24.81;55.12;100827.35;109937;1241;63429;-68
2023/06/14 11:16:51;;;;;;;9.40;5.80;;;;;;;25.00;54.53;100827.95;110064;1239;60657;-68
2023/06/14 11:19:21;;;;;;;11.20;6.40;;;;;;;24.98;54.25;100827.20;110057;1235;63819;-68
2023/06/14 11:21:51;;;;;;;11.10;6.20;;;;;;;24.96;54.28;100829.00;110082;1241;57669;-67
2023/06/14 11:24:21;;;;;;;8.70;6.20;;;;;;;24.88;54.60;100827.81;110300;1235;57695;-68